Latest Weather Observations for Horsham

IDV60801

Issued at 3:02 pm EDT Monday 23 January 2017 (issued every 30 minutes, with the page automatically refreshed every 10 minutes)

About weather observations | Map of weather stations | Latest weather observations for VIC | Other Formats
Station Details ID: 079100 Name: HORSHAM AERODROME Lat: -36.67 Lon: 142.17 Height: 133.8 m
Data from the previous 72 hours. | See also: Recent months at Horsham
Date/Time
EDT
Temp
°C
App
Temp
°C
Dew
Point
°C
Rel
Hum
%
Delta-T
°C
Wind Press
QNH
hPa
Press
MSL
hPa
Rain since
9am
mm
Dir  Spd
km/h
Gust
km/h
Spd
kts
Gust
kts
23/02:30pm 36.7 30.1 5.9 15 17.0 WNW 30 44 16 24 1003.1 1002.6 0.0
23/02:00pm 37.4 31.0 5.4 14 17.6 NW 28 46 15 25 1003.4 1002.9 0.0
23/01:40pm 36.1 29.4 5.4 15 16.7 NW 30 50 16 27 1003.7 1003.2 0.0
23/01:30pm 36.3 30.0 5.5 15 16.8 NW 28 39 15 21 1003.8 1003.3 0.0
23/01:00pm 35.9 30.6 5.2 15 16.7 NNW 22 33 12 18 1004.1 1003.6 0.0
23/12:30pm 34.7 29.4 5.2 16 15.9 NW 22 32 12 17 1004.6 1004.1 0.0
23/12:00pm 35.5 29.6 5.8 16 16.3 NNW 26 37 14 20 1004.7 1004.2 0.0
23/11:30am 34.1 28.9 7.2 19 14.9 NW 24 35 13 19 1005.1 1004.6 0.0
23/11:00am 33.1 28.7 6.4 19 14.6 NNW 19 26 10 14 1005.3 1004.8 0.0
23/10:30am 32.0 28.1 7.0 21 13.7 N 17 20 9 11 1005.9 1005.3 0.0
23/10:00am 30.1 25.0 6.1 22 12.8 N 22 28 12 15 1006.2 1005.6 0.0
23/09:30am 30.3 26.6 8.1 25 12.3 N 17 22 9 12 1006.3 1005.7 0.0
23/09:00am 26.5 23.9 9.4 34 9.5 NNE 13 15 7 8 1006.4 1005.8 0.0
23/08:30am 24.9 22.7 10.8 41 7.9 NNE 13 15 7 8 1006.6 1006.0 0.0
23/08:00am 23.3 20.9 11.4 47 6.7 N 15 19 8 10 1006.5 1005.9 0.0
23/07:30am 22.4 20.5 11.8 51 6.0 NE 13 17 7 9 1005.9 1005.3 0.0
23/07:00am 21.7 20.2 12.0 54 5.5 NE 11 15 6 8 1005.8 1005.2 0.0
23/06:30am 22.2 20.1 11.3 50 6.1 NE 13 15 7 8 1005.8 1005.2 0.0
23/06:00am 22.1 20.0 11.2 50 6.1 NE 13 15 7 8 1005.9 1005.3 0.0
23/05:30am 21.9 20.2 11.3 51 5.9 NE 11 13 6 7 1006.1 1005.5 0.0
23/05:00am 22.1 19.6 11.2 50 6.1 NE 15 17 8 9 1006.1 1005.5 0.0
23/04:30am 22.2 20.3 11.9 52 5.8 ENE 13 15 7 8 1006.4 1005.8 0.0
23/04:00am 22.3 20.7 12.8 55 5.5 E 13 15 7 8 1006.6 1006.0 0.0
23/03:30am 21.7 20.4 13.6 60 4.7 E 13 15 7 8 1006.9 1006.3 0.0
23/03:00am 21.8 20.7 13.2 58 5.0 E 11 13 6 7 1007.3 1006.8 0.0
23/02:30am 22.4 21.0 13.5 57 5.2 ESE 13 15 7 8 1007.3 1006.8 0.0
23/02:00am 22.5 20.8 13.6 57 5.2 ESE 15 17 8 9 1007.3 1006.8 0.0
23/01:30am 22.6 20.5 12.5 53 5.8 ESE 15 17 8 9 1007.5 1007.0 0.0
23/01:00am 22.3 20.0 10.5 47 6.5 E 13 20 7 11 1007.5 1007.0 0.0
23/12:30am 23.8 22.3 10.5 43 7.4 NE 9 11 5 6 1007.7 1007.2 0.0
23/12:00am 25.0 23.3 8.5 35 8.9 NE 7 9 4 5 1008.2 1007.7 0.0
 
Date/Time
EDT
Temp
°C
App
Temp
°C
Dew
Point
°C
Rel
Hum
%
Delta-T
°C
Wind Press
QNH
hPa
Press
MSL
hPa
Rain since
9am
mm
Dir  Spd
km/h
Gust
km/h
Spd
kts
Gust
kts
22/11:30pm 24.4 24.0 11.0 43 7.5 N 4 11 2 6 1008.7 1008.2 0.0
22/11:00pm 25.8 24.4 8.8 34 9.3 N 6 7 3 4 1009.0 1008.5 0.0
22/10:30pm 25.6 23.9 7.7 32 9.6 NE 6 11 3 6 1009.3 1008.8 0.0
22/10:00pm 26.2 25.0 8.2 32 9.8 WNW 4 6 2 3 1009.3 1008.8 0.0
22/09:30pm 27.4 25.8 7.8 29 10.6 WNW 6 7 3 4 1009.2 1008.7 0.0
22/09:00pm 28.6 26.1 6.7 25 11.7 WNW 9 9 5 5 1009.2 1008.7 0.0
22/08:30pm 29.7 27.8 7.6 25 12.1 ENE 7 9 4 5 1008.7 1008.2 0.0
22/08:00pm 31.1 28.9 5.5 20 13.6 NE 6 7 3 4 1008.7 1008.2 0.0
22/07:30pm 31.9 29.9 4.6 18 14.3 NNE 4 7 2 4 1008.6 1008.1 0.0
22/07:00pm 32.9 29.7 2.9 15 15.4 NNE 9 17 5 9 1008.6 1008.1 0.0
22/06:30pm 32.9 30.2 2.9 15 15.4 NNE 6 17 3 9 1009.0 1008.5 0.0
22/06:00pm 33.8 30.7 1.6 13 16.3 ENE 7 15 4 8 1009.2 1008.7 0.0
22/05:30pm 34.1 30.9 2.8 14 16.2 WNW 9 17 5 9 1009.5 1009.0 0.0
22/05:00pm 33.8 31.3 3.6 15 15.8 NW 6 11 3 6 1009.8 1009.3 0.0
22/04:30pm 33.3 30.3 2.2 14 15.8 WSW 7 15 4 8 1010.0 1009.5 0.0
22/04:00pm 33.7 30.4 4.4 16 15.5 NW 11 17 6 9 1010.4 1009.9 0.0
22/03:30pm 32.7 30.3 4.5 17 14.9 NNE 6 13 3 7 1010.8 1010.3 0.0
22/03:00pm 32.3 28.6 4.2 17 14.7 NW 13 20 7 11 1011.2 1010.7 0.0
22/02:30pm 31.9 28.6 4.6 18 14.3 NNE 11 20 6 11 1011.7 1011.2 0.0
22/02:00pm 31.4 27.8 5.0 19 13.9 NNE 13 22 7 12 1012.1 1011.6 0.0
22/01:30pm 31.4 28.5 6.5 21 13.5 NNE 11 28 6 15 1012.5 1012.0 0.0
22/01:00pm 30.8 27.8 6.0 21 13.3 NNE 11 19 6 10 1012.7 1012.2 0.0
22/12:30pm 29.6 25.4 5.6 22 12.7 NE 17 24 9 13 1012.9 1012.4 0.0
22/12:00pm 28.4 24.7 6.5 25 11.6 NE 15 20 8 11 1013.3 1012.8 0.0
22/11:30am 28.2 25.5 9.0 30 10.6 ENE 13 24 7 13 1013.7 1013.2 0.0
22/11:00am 26.6 23.1 7.1 29 10.4 ENE 15 20 8 11 1014.0 1013.5 0.0
22/10:30am 25.6 22.6 7.7 32 9.6 ENE 13 19 7 10 1014.3 1013.8 0.0
22/10:00am 24.1 21.0 8.9 38 8.2 ENE 15 19 8 10 1014.7 1014.2 0.0
22/09:30am 22.6 19.6 10.7 47 6.6 E 17 20 9 11 1015.0 1014.5 0.0
22/09:00am 21.2 17.8 11.2 53 5.6 E 20 28 11 15 1014.8 1014.3 0.0
22/08:30am 19.0 15.8 11.8 63 4.0 ESE 20 26 11 14 1014.8 1014.3 0.0
22/08:00am 17.1 13.5 11.8 71 2.9 ESE 22 26 12 14 1014.8 1014.3 0.0
22/07:30am 15.6 12.5 11.6 77 2.2 E 19 26 10 14 1014.4 1013.9 0.0
22/07:00am 14.0 10.8 11.3 84 1.4 ESE 19 22 10 12 1014.4 1013.9 0.0
22/06:30am 13.4 10.0 11.3 87 1.1 ESE 20 24 11 13 1014.4 1013.9 0.0
22/06:00am 13.2 10.0 11.1 87 1.1 ESE 19 22 10 12 1014.6 1014.1 0.0
22/05:30am 13.1 10.2 11.0 87 1.1 ESE 17 20 9 11 1014.5 1014.0 0.0
22/05:00am 13.1 10.1 10.8 86 1.2 ESE 17 19 9 10 1014.3 1013.8 0.0
22/04:30am 13.4 10.5 11.1 86 1.2 ESE 17 19 9 10 1014.3 1013.8 0.0
22/04:00am 13.9 11.0 11.1 83 1.5 ESE 17 19 9 10 1014.3 1013.8 0.0
22/03:30am 14.0 11.0 10.8 81 1.7 ESE 17 19 9 10 1014.4 1013.9 0.0
22/03:00am 15.0 11.7 10.8 76 2.2 ESE 19 22 10 12 1014.5 1014.0 0.0
22/02:30am 14.9 11.9 10.7 76 2.2 ESE 17 20 9 11 1014.6 1014.1 0.0
22/02:00am 15.5 12.5 10.7 73 2.6 SE 17 22 9 12 1014.7 1014.2 0.0
22/01:30am 16.0 13.0 10.7 71 2.8 ESE 17 20 9 11 1014.9 1014.4 0.0
22/01:00am 16.5 13.1 10.6 68 3.2 ESE 19 24 10 13 1014.9 1014.4 0.0
22/12:30am 17.3 14.0 10.9 66 3.5 SE 19 24 10 13 1015.0 1014.5 0.0
22/12:00am 17.8 14.5 10.9 64 3.7 ESE 19 24 10 13 1015.0 1014.5 0.0
 
Date/Time
EDT
Temp
°C
App
Temp
°C
Dew
Point
°C
Rel
Hum
%
Delta-T
°C
Wind Press
QNH
hPa
Press
MSL
hPa
Rain since
9am
mm
Dir  Spd
km/h
Gust
km/h
Spd
kts
Gust
kts
21/11:30pm 18.1 14.9 11.4 65 3.7 ESE 19 20 10 11 1015.1 1014.6 0.0
21/11:00pm 19.1 15.7 11.4 61 4.2 ESE 20 28 11 15 1015.2 1014.7 0.0
21/10:30pm 19.7 16.3 11.2 58 4.7 ESE 20 28 11 15 1015.0 1014.5 0.0
21/10:00pm 19.8 16.9 11.0 57 4.8 SE 17 20 9 11 1014.8 1014.3 0.0
21/09:30pm 19.3 16.6 10.3 56 4.9 ESE 15 17 8 9 1014.5 1014.0 0.0
21/09:00pm 21.4 19.1 10.6 50 5.9 ESE 13 19 7 10 1014.1 1013.6 0.0
21/08:30pm 24.1 21.2 9.7 40 7.9 SSE 15 17 8 9 1013.8 1013.3 0.0
21/08:00pm 25.9 22.9 9.3 35 9.1 SE 15 20 8 11 1013.4 1012.9 0.0
21/07:30pm 26.5 22.6 8.5 32 9.8 SE 19 26 10 14 1013.2 1012.7 0.0
21/07:00pm 26.9 23.6 7.9 30 10.3 SSE 15 22 8 12 1012.9 1012.4 0.0
21/06:30pm 27.9 24.1 9.2 31 10.4 SSE 19 24 10 13 1012.9 1012.4 0.0
21/06:00pm 27.1 23.5 8.5 31 10.2 SSE 17 26 9 14 1013.0 1012.5 0.0
21/05:30pm 27.3 23.1 8.2 30 10.4 S 20 30 11 16 1013.0 1012.5 0.0
21/05:00pm 27.7 23.9 7.5 28 10.9 SSE 17 26 9 14 1013.1 1012.6 0.0
21/04:30pm 27.5 23.2 7.9 29 10.6 SSE 20 32 11 17 1013.6 1013.1 0.0
21/04:00pm 26.6 22.9 8.1 31 10.0 SSE 17 24 9 13 1013.9 1013.4 0.0
21/03:30pm 26.3 22.6 6.4 28 10.4 S 15 22 8 12 1014.1 1013.6 0.0
21/03:00pm 25.5 22.4 7.1 31 9.7 SE 13 24 7 13 1014.2 1013.7 0.0
21/02:30pm 24.9 21.5 7.5 33 9.2 S 15 22 8 12 1014.4 1013.9 0.0
21/02:00pm 24.5 20.9 6.7 32 9.3 S 15 26 8 14 1014.6 1014.1 0.0
21/01:30pm 23.6 20.0 6.8 34 8.7 SSE 15 24 8 13 1014.9 1014.4 0.0
21/01:00pm 23.0 19.3 7.9 38 8.0 SE 17 26 9 14 1015.1 1014.6 0.0
21/12:30pm 22.3 18.0 6.9 37 8.0 SSE 19 28 10 15 1015.4 1014.9 0.0
21/12:00pm 20.6 16.3 7.2 42 6.9 SSE 19 26 10 14 1015.7 1015.2 0.0
21/11:30am 20.2 16.3 8.5 47 6.1 SE 19 30 10 16 1015.8 1015.3 0.0
21/11:00am 18.6 15.2 9.1 54 5.0 S 17 26 9 14 1016.1 1015.6 0.0
21/10:30am 18.0 14.2 9.1 56 4.7 S 19 24 10 13 1016.3 1015.8 0.0
21/10:00am 16.7 13.2 8.7 59 4.1 S 17 26 9 14 1016.4 1015.9 0.0
21/09:30am 15.9 13.2 9.1 64 3.5 SSW 13 17 7 9 1016.3 1015.8 0.0
21/09:00am 14.5 12.1 9.9 74 2.4 SSW 13 17 7 9 1016.1 1015.6 0.0
21/08:30am 13.2 11.6 10.2 82 1.6 SSW 9 13 5 7 1015.7 1015.2 0.0
21/08:00am 11.9 10.3 10.1 89 0.9 SW 9 13 5 7 1015.3 1014.8 0.0
21/07:30am 9.9 8.4 9.0 94 0.4 W 7 9 4 5 1014.8 1014.3 0.0
21/07:00am 9.2 7.1 8.3 94 0.4 SW 9 11 5 6 1014.5 1014.0 0.0
21/06:30am 8.7 6.8 7.6 93 0.5 SW 7 9 4 5 1014.1 1013.6 0.0
21/06:00am 9.5 7.4 8.3 92 0.6 SW 9 13 5 7 1013.8 1013.3 0.0
21/05:30am 9.8 7.7 8.4 91 0.7 SW 9 11 5 6 1013.6 1013.1 0.0
21/05:00am 10.0 7.9 8.3 89 0.8 SW 9 11 5 6 1013.1 1012.6 0.0
21/04:30am 10.6 8.2 8.5 87 1.0 SW 11 13 6 7 1012.9 1012.4 0.0
21/04:00am 10.8 8.8 8.6 86 1.1 SW 9 11 5 6 1012.8 1012.3 0.0
21/03:30am 10.9 8.9 8.8 87 1.0 S 9 11 5 6 1012.8 1012.3 0.0
21/03:00am 10.9 8.9 8.5 85 1.2 SW 9 11 5 6 1012.7 1012.2 0.0
21/02:30am 10.8 8.3 8.2 84 1.3 SW 11 13 6 7 1012.7 1012.2 0.0
21/02:00am 10.5 8.0 8.3 86 1.1 SSW 11 13 6 7 1012.7 1012.2 0.0
21/01:30am 10.1 7.9 7.9 86 1.1 SSW 9 11 5 6 1012.5 1012.0 0.0
21/01:00am 10.4 7.5 8.0 85 1.2 S 13 15 7 8 1012.1 1011.6 0.0
21/12:30am 10.7 7.7 7.9 83 1.4 S 13 17 7 9 1011.9 1011.4 0.0
21/12:00am 11.7 8.9 8.4 80 1.6 SSW 13 17 7 9 1011.4 1010.9 0.0
 
Date/Time
EDT
Temp
°C
App
Temp
°C
Dew
Point
°C
Rel
Hum
%
Delta-T
°C
Wind Press
QNH
hPa
Press
MSL
hPa
Rain since
9am
mm
Dir  Spd
km/h
Gust
km/h
Spd
kts
Gust
kts
20/11:30pm 12.2 8.2 8.3 77 1.9 S 19 20 10 11 1011.0 1010.5 0.0
20/11:00pm 13.0 9.0 8.3 73 2.4 S 19 24 10 13 1010.8 1010.3 0.0
20/10:30pm 13.8 9.5 8.0 68 2.9 S 20 28 11 15 1010.4 1009.9 0.0
20/10:00pm 14.2 10.1 8.6 69 2.8 S 20 24 11 13 1010.0 1009.5 0.0
20/09:30pm 15.0 10.9 8.7 66 3.2 S 20 26 11 14 1009.7 1009.2 0.0
20/09:00pm 16.2 11.3 8.4 60 4.0 S 24 30 13 16 1009.1 1008.6 0.0
20/08:30pm 17.4 11.8 8.8 57 4.5 S 28 37 15 20 1008.8 1008.3 0.0
20/08:00pm 18.6 12.6 8.8 53 5.1 S 30 37 16 20 1008.1 1007.6 0.0
20/07:30pm 19.5 13.0 9.1 51 5.5 SSW 33 43 18 23 1007.5 1007.0 0.0
20/07:00pm 20.3 14.1 9.2 49 5.9 S 32 43 17 23 1006.9 1006.3 0.0
20/06:30pm 21.2 14.3 8.8 45 6.6 S 35 46 19 25 1006.2 1005.6 0.0
20/06:15pm 21.4 13.9 9.3 46 6.5 S 39 56 21 30 1005.9 1005.3 0.0
20/06:13pm 21.6 14.4 9.2 45 6.7 SSE 37 56 20 30 1005.8 1005.2 0.0
20/06:00pm 21.9 15.5 9.4 45 6.8 SSW 33 44 18 24 1005.8 1005.2 0.0
20/05:30pm 22.7 16.0 9.8 44 7.0 SSW 35 46 19 25 1005.5 1005.0 0.0
20/05:00pm 22.8 15.8 9.9 44 7.1 SSW 37 46 20 25 1005.3 1004.8 0.0
20/04:30pm 22.8 15.8 9.9 44 7.1 SSW 37 56 20 30 1005.0 1004.5 0.0
20/04:00pm 22.3 15.6 9.5 44 7.0 SSW 35 52 19 28 1004.9 1004.4 0.0
20/03:43pm 22.6 16.3 9.7 44 7.0 S 33 54 18 29 1004.6 1004.1 0.0
20/03:30pm 21.5 15.0 10.3 49 6.1 S 35 46 19 25 1004.6 1004.1 0.0

Other Formats:

Comma delimited format used in spreadsheet applications
http://www.bom.gov.au/fwo/IDV60801/IDV60801.95839.axf

JavaScript Object Notation format (JSON) in row-major order
http://www.bom.gov.au/fwo/IDV60801/IDV60801.95839.json